Lincoln, Nebraska
Current Conditions -  °F | °C
As of 12:54 PM on Saturday 25 Oct 2014 (Local Time) from KLNK Reporting Station
Clear Clear  
Wind Chill: 71°   Ceiling: Unl
Heat Index: 71°   Visibility: 10mi
Dew Point: 45°   Wind: 8mph
Humidity: 39%   Direction: 50°NE
Pressure: 30.12"   Gusts: NA
Location:  40.81°N, 96.71°W
Report Text: KLNK 251754Z 05007KT 10SM CLR 22/07 A3012 RMK AO2 SLP194 T02170072 10217 20061 58005 $
Loading
Personal Weather Stations






























Interactive Weather Map New forecast layout! Learn more

10-Day Weather Forecast

Advertisements
Track Severe Weather on mobile